Time;durP1;ratioP1;P1;durP2;ratioP2;P2;SDS_P1;SDS_P2;PMS_P1;PMS_P2;Temp;Humidity;BMP_temperature;BMP_pressure;BME280_temperature;BME280_humidity;BME280_pressure;Samples;Min_cycle;Max_cycle;Signal;HPM_P1;HPM_P2
2023/05/22 00:00:13;;;;;;;8.10;5.50;;;;;;;12.10;81.74;95642.06;106813;1275;22504;-62
2023/05/22 00:03:03;;;;;;;7.30;4.50;;;;;;;11.95;82.03;95647.19;106793;1274;22637;-63
2023/05/22 00:05:37;;;;;;;7.70;5.10;;;;;;;11.88;82.91;95643.98;106795;1274;25462;-62
2023/05/22 00:08:12;;;;;;;10.80;6.90;;;;;;;11.90;82.69;95643.25;106723;1274;22522;-62
2023/05/22 00:10:41;;;;;;;7.90;4.80;;;;;;;11.90;82.27;95640.44;106729;1274;24046;-62
2023/05/22 00:13:09;;;;;;;7.60;4.80;;;;;;;11.81;82.28;95640.07;106602;1274;23970;-62
2023/05/22 00:15:37;;;;;;;6.10;4.40;;;;;;;11.75;82.64;95640.04;106738;1251;24239;-62
2023/05/22 00:18:06;;;;;;;5.40;4.30;;;;;;;11.73;82.19;95640.77;106733;1251;22629;-62
2023/05/22 00:20:37;;;;;;;9.90;4.10;;;;;;;11.68;82.35;95634.73;106719;1274;22633;-62
2023/05/22 00:23:09;;;;;;;4.60;4.10;;;;;;;11.66;82.43;95634.58;106765;1256;22521;-62
2023/05/22 00:25:38;;;;;;;6.50;4.90;;;;;;;11.65;83.11;95630.02;106758;1274;25367;-63
2023/05/22 00:28:06;;;;;;;5.50;4.70;;;;;;;11.70;83.21;95630.09;106693;1274;22521;-62
2023/05/22 00:30:35;;;;;;;6.10;4.30;;;;;;;11.75;82.83;95628.73;106744;1274;22547;-62
2023/05/22 00:33:04;;;;;;;4.40;3.90;;;;;;;11.79;82.52;95627.97;106796;1274;24489;-63
2023/05/22 00:35:32;;;;;;;4.80;4.00;;;;;;;11.79;81.69;95623.54;106815;1274;22631;-62
2023/05/22 00:38:02;;;;;;;4.20;3.80;;;;;;;11.78;81.91;95627.10;106722;1275;22567;-63
2023/05/22 00:40:30;;;;;;;8.20;4.20;;;;;;;11.80;82.46;95626.87;106706;1274;24195;-63
2023/05/22 00:42:59;;;;;;;6.90;4.10;;;;;;;11.84;82.23;95625.54;106662;1274;22517;-63
2023/05/22 00:45:27;;;;;;;4.40;3.60;;;;;;;11.84;81.64;95623.27;106754;1274;22637;-63
2023/05/22 00:47:55;;;;;;;6.10;4.10;;;;;;;11.79;81.59;95619.15;106752;1274;22526;-63
2023/05/22 00:50:23;;;;;;;5.40;4.10;;;;;;;11.76;82.19;95617.60;106766;1274;22515;-63
2023/05/22 00:52:52;;;;;;;7.50;3.90;;;;;;;11.78;82.72;95622.16;106755;1274;22533;-63
2023/05/22 00:55:20;;;;;;;6.20;4.00;;;;;;;11.78;82.02;95620.59;106777;1274;22518;-63
2023/05/22 00:57:51;;;;;;;8.40;3.60;;;;;;;11.74;81.93;95619.79;106815;1274;26505;-63
2023/05/22 01:00:20;;;;;;;4.60;3.60;;;;;;;11.77;81.99;95619.73;106795;1274;25452;-63
2023/05/22 01:02:50;;;;;;;5.20;4.30;;;;;;;11.83;81.65;95616.74;106831;1257;24240;-63
2023/05/22 01:05:18;;;;;;;7.20;4.90;;;;;;;11.76;81.32;95617.43;106721;1254;25639;-63
2023/05/22 01:07:46;;;;;;;7.50;4.10;;;;;;;11.66;81.05;95618.71;106666;1274;22638;-63
2023/05/22 01:10:15;;;;;;;6.60;4.10;;;;;;;11.61;80.93;95616.35;106768;1275;24346;-63
2023/05/22 01:12:49;;;;;;;5.80;3.80;;;;;;;11.58;80.67;95609.94;106781;1274;22595;-63
2023/05/22 01:15:30;;;;;;;6.40;4.00;;;;;;;11.43;81.21;95616.08;106741;1274;24202;-63
2023/05/22 01:18:21;;;;;;;5.10;4.10;;;;;;;11.29;82.85;95611.95;106800;1274;25340;-63
2023/05/22 01:20:57;;;;;;;8.90;4.90;;;;;;;11.22;82.82;95616.14;106757;1274;24246;-63
2023/05/22 01:23:59;;;;;;;5.70;4.00;;;;;;;11.18;83.17;95616.23;106783;1274;22513;-63
2023/05/22 01:26:56;;;;;;;7.10;4.30;;;;;;;11.11;82.28;95610.91;106772;1274;25367;-63
2023/05/22 01:30:03;;;;;;;5.80;4.80;;;;;;;11.09;82.13;95612.02;106203;1264;653122;-63
2023/05/22 01:32:33;;;;;;;6.30;4.40;;;;;;;11.05;82.16;95612.79;106803;1274;22519;-63
2023/05/22 01:35:08;;;;;;;5.20;4.00;;;;;;;11.03;81.74;95607.02;106993;1274;25259;-63
2023/05/22 01:37:37;;;;;;;6.70;4.00;;;;;;;11.00;81.79;95603.39;106792;1274;22638;-63
2023/05/22 01:40:07;;;;;;;8.20;4.40;;;;;;;10.89;81.76;95600.45;106703;1274;22991;-63
2023/05/22 01:42:40;;;;;;;6.70;4.20;;;;;;;10.84;82.36;95591.58;106768;1274;22649;-63
2023/05/22 01:45:10;;;;;;;15.00;5.50;;;;;;;10.77;83.00;95590.64;106741;1274;22556;-63
2023/05/22 01:47:38;;;;;;;4.20;3.70;;;;;;;10.73;83.62;95590.55;106701;1274;22527;-63
2023/05/22 01:50:07;;;;;;;4.60;3.70;;;;;;;10.71;83.68;95594.29;106607;1274;24055;-63
2023/05/22 01:52:54;;;;;;;5.00;4.00;;;;;;;10.61;83.77;95594.12;106812;1274;24466;-63
2023/05/22 01:55:54;;;;;;;7.40;4.00;;;;;;;10.57;83.94;95598.24;106750;1274;22517;-63
2023/05/22 01:58:48;;;;;;;7.20;3.70;;;;;;;10.59;83.80;95598.55;106848;1274;22899;-64
2023/05/22 02:01:18;;;;;;;7.40;3.60;;;;;;;10.68;83.43;95599.61;106740;1274;24063;-63
2023/05/22 02:03:50;;;;;;;5.90;3.50;;;;;;;10.64;82.39;95599.17;106758;1274;22524;-63
2023/05/22 02:06:19;;;;;;;4.50;3.90;;;;;;;10.61;82.72;95599.23;107048;1274;22511;-63
2023/05/22 02:08:49;;;;;;;6.70;3.70;;;;;;;10.64;82.53;95601.10;107028;1274;24078;-63
2023/05/22 02:11:20;;;;;;;4.80;3.30;;;;;;;10.62;82.44;95600.09;106778;1274;22528;-63
2023/05/22 02:13:49;;;;;;;5.70;3.50;;;;;;;10.67;82.39;95598.95;106700;1274;22523;-63
2023/05/22 02:16:20;;;;;;;8.40;3.60;;;;;;;10.67;82.31;95597.70;106784;1274;24881;-63
2023/05/22 02:18:50;;;;;;;5.40;3.60;;;;;;;10.64;81.85;95596.02;106784;1274;22507;-63
2023/05/22 02:21:18;;;;;;;4.20;3.60;;;;;;;10.62;82.03;95596.21;106769;1274;22513;-63
2023/05/22 02:23:46;;;;;;;5.80;3.60;;;;;;;10.53;82.67;95602.00;106650;1252;24352;-63
2023/05/22 02:26:14;;;;;;;6.10;4.20;;;;;;;10.52;83.13;95601.85;106755;1274;23874;-63
2023/05/22 02:28:42;;;;;;;6.80;4.70;;;;;;;10.56;82.87;95601.23;106703;1274;24334;-63
2023/05/22 02:31:11;;;;;;;7.90;4.40;;;;;;;10.62;82.63;95599.20;106706;1274;25313;-63
2023/05/22 02:33:40;;;;;;;5.80;3.70;;;;;;;10.57;81.82;95596.13;106699;1274;24574;-63
2023/05/22 02:36:11;;;;;;;9.10;3.90;;;;;;;10.52;81.82;95595.88;106771;1274;22522;-63
2023/05/22 02:38:39;;;;;;;7.90;4.10;;;;;;;10.46;82.30;95596.15;106752;1274;25261;-63
2023/05/22 02:41:07;;;;;;;7.30;4.40;;;;;;;10.42;82.80;95593.93;106746;1253;24218;-63
2023/05/22 02:43:36;;;;;;;5.90;3.50;;;;;;;10.36;82.75;95588.41;106714;1274;25438;-63
2023/05/22 02:46:04;;;;;;;5.90;3.90;;;;;;;10.35;82.50;95591.25;106796;1274;22647;-63
2023/05/22 02:48:32;;;;;;;5.80;4.10;;;;;;;10.35;82.58;95598.12;106734;1274;22522;-63
2023/05/22 02:51:00;;;;;;;8.70;4.10;;;;;;;10.29;82.19;95602.08;106758;1274;22517;-63
2023/05/22 02:53:28;;;;;;;5.30;4.70;;;;;;;10.17;83.30;95601.73;106766;1274;22662;-63
2023/05/22 02:55:57;;;;;;;5.80;4.20;;;;;;;10.07;83.80;95601.36;106759;1274;25333;-63
2023/05/22 02:58:26;;;;;;;6.70;4.50;;;;;;;10.06;83.48;95601.20;106862;1274;22525;-63
2023/05/22 03:00:54;;;;;;;5.00;4.30;;;;;;;10.13;83.49;95597.58;106718;1274;24208;-63
2023/05/22 03:03:24;;;;;;;5.40;3.70;;;;;;;10.16;83.43;95597.89;106722;1274;25281;-63
2023/05/22 03:05:53;;;;;;;5.50;3.90;;;;;;;10.16;83.60;95598.58;106800;1270;22518;-63
2023/05/22 03:08:21;;;;;;;5.50;3.50;;;;;;;10.17;83.42;95597.51;106745;1274;23894;-63
2023/05/22 03:10:49;;;;;;;5.60;3.70;;;;;;;10.17;83.32;95592.77;106701;1274;24221;-63
2023/05/22 03:13:17;;;;;;;5.00;3.80;;;;;;;10.20;83.36;95590.43;106712;1274;24362;-63
2023/05/22 03:15:45;;;;;;;5.60;3.60;;;;;;;10.26;84.07;95596.30;106689;1274;25619;-63
2023/05/22 03:18:15;;;;;;;7.20;4.80;;;;;;;10.31;84.51;95595.91;106774;1274;25532;-63
2023/05/22 03:20:43;;;;;;;9.00;5.20;;;;;;;10.36;84.56;95593.70;106697;1274;22573;-63
2023/05/22 03:23:12;;;;;;;6.60;4.60;;;;;;;10.43;84.24;95593.22;106741;1274;22517;-63
2023/05/22 03:25:40;;;;;;;4.90;3.80;;;;;;;10.46;83.81;95588.42;106745;1274;25424;-63
2023/05/22 03:28:08;;;;;;;4.00;3.20;;;;;;;10.51;83.42;95592.55;106752;1274;24374;-63
2023/05/22 03:30:39;;;;;;;6.10;3.70;;;;;;;10.46;83.03;95591.41;107056;1274;24434;-63
2023/05/22 03:33:12;;;;;;;8.40;3.60;;;;;;;10.44;83.48;95589.34;106829;1274;22681;-62
2023/05/22 03:35:42;;;;;;;5.60;3.90;;;;;;;10.46;84.65;95588.60;106636;1274;22639;-63
2023/05/22 03:38:11;;;;;;;7.30;4.70;;;;;;;10.55;84.78;95589.65;106729;1274;22575;-63
2023/05/22 03:40:39;;;;;;;12.00;7.40;;;;;;;10.64;84.04;95594.24;106647;1274;22635;-63
2023/05/22 03:43:08;;;;;;;12.80;8.30;;;;;;;10.69;83.93;95595.20;106798;1274;22514;-63
2023/05/22 03:45:36;;;;;;;24.80;15.50;;;;;;;10.68;83.54;95598.91;106611;1274;22522;-63
2023/05/22 03:48:05;;;;;;;15.20;10.00;;;;;;;10.63;82.92;95597.26;106731;1274;22641;-63
2023/05/22 03:50:34;;;;;;;8.90;6.40;;;;;;;10.63;83.31;95595.85;106755;1274;22649;-63
2023/05/22 03:53:02;;;;;;;6.70;5.20;;;;;;;10.56;83.11;95590.52;106751;1274;22571;-63
2023/05/22 03:55:31;;;;;;;7.00;5.30;;;;;;;10.51;83.29;95585.70;106748;1274;24379;-63
2023/05/22 03:57:59;;;;;;;10.80;5.60;;;;;;;10.49;83.33;95590.11;106769;1274;26643;-63
2023/05/22 04:00:28;;;;;;;8.00;5.00;;;;;;;10.46;83.71;95591.94;106768;1274;22511;-63
2023/05/22 04:02:57;;;;;;;6.70;5.60;;;;;;;10.47;84.56;95593.50;106653;1274;25312;-63
2023/05/22 04:05:26;;;;;;;9.20;6.80;;;;;;;10.45;85.12;95592.12;106799;1274;22574;-63
2023/05/22 04:07:55;;;;;;;8.80;7.00;;;;;;;10.49;84.99;95586.96;106812;1274;22521;-62
2023/05/22 04:10:23;;;;;;;10.80;7.30;;;;;;;10.52;84.76;95581.98;106755;1274;25309;-63
2023/05/22 04:12:51;;;;;;;9.60;7.10;;;;;;;10.49;85.09;95579.76;106775;1274;24471;-63
2023/05/22 04:15:20;;;;;;;9.10;6.60;;;;;;;10.51;85.44;95577.77;106765;1274;22581;-63
2023/05/22 04:17:48;;;;;;;10.50;6.30;;;;;;;10.57;85.49;95578.55;106741;1274;22523;-63
2023/05/22 04:20:17;;;;;;;7.60;5.80;;;;;;;10.63;85.20;95578.08;106705;1274;22514;-63
2023/05/22 04:22:45;;;;;;;8.60;5.90;;;;;;;10.68;85.31;95582.73;106680;1274;22766;-63
2023/05/22 04:25:13;;;;;;;7.70;5.90;;;;;;;10.80;85.21;95580.02;106720;1274;25400;-63
2023/05/22 04:27:41;;;;;;;12.20;7.60;;;;;;;10.95;85.26;95583.96;106653;1274;22711;-62
2023/05/22 04:30:10;;;;;;;10.70;6.90;;;;;;;11.11;85.27;95583.98;106753;1274;24643;-62
2023/05/22 04:32:39;;;;;;;8.00;5.90;;;;;;;11.25;85.12;95581.04;106779;1274;22513;-62
2023/05/22 04:35:09;;;;;;;6.70;5.40;;;;;;;11.33;84.25;95577.36;106809;1274;22497;-62
2023/05/22 04:37:39;;;;;;;6.70;5.10;;;;;;;11.39;83.90;95577.05;106767;1274;22669;-62
2023/05/22 04:40:08;;;;;;;8.80;6.00;;;;;;;11.52;84.59;95577.81;106774;1274;24031;-62
2023/05/22 04:42:37;;;;;;;7.30;5.40;;;;;;;11.74;84.60;95572.73;106800;1274;22562;-63
2023/05/22 04:45:07;;;;;;;8.30;5.80;;;;;;;11.93;84.51;95578.30;106710;1274;22517;-63
2023/05/22 04:47:37;;;;;;;7.70;5.90;;;;;;;12.06;83.91;95581.67;106737;1274;24199;-63
2023/05/22 04:50:07;;;;;;;10.40;6.10;;;;;;;12.19;83.50;95579.43;106716;1274;25210;-62
2023/05/22 04:52:36;;;;;;;7.20;5.20;;;;;;;12.33;83.12;95573.78;106702;1274;22915;-62
2023/05/22 04:55:05;;;;;;;10.80;6.60;;;;;;;12.33;82.03;95568.66;106804;1274;22533;-62
2023/05/22 04:57:33;;;;;;;14.70;10.20;;;;;;;12.24;82.59;95559.55;106763;1274;25601;-62
2023/05/22 05:00:05;;;;;;;13.80;8.30;;;;;;;12.23;82.79;95556.05;106716;1273;25494;-62
2023/05/22 05:02:34;;;;;;;10.00;6.80;;;;;;;12.26;83.30;95553.86;106809;1274;24358;-62
2023/05/22 05:05:03;;;;;;;10.30;7.70;;;;;;;12.31;83.80;95551.95;106811;1274;22522;-62
2023/05/22 05:07:31;;;;;;;12.20;6.00;;;;;;;12.43;84.22;95556.94;106679;1274;24361;-62
2023/05/22 05:09:59;;;;;;;9.90;6.20;;;;;;;12.59;84.47;95561.46;106685;1274;24365;-62
2023/05/22 05:12:28;;;;;;;6.70;5.40;;;;;;;12.74;84.74;95562.10;106657;1274;25341;-62
2023/05/22 05:14:56;;;;;;;8.80;5.70;;;;;;;12.82;84.43;95564.38;106606;1274;22520;-62
2023/05/22 05:17:24;;;;;;;6.60;4.70;;;;;;;12.92;84.88;95564.61;106663;1274;22511;-62
2023/05/22 05:19:53;;;;;;;6.00;4.40;;;;;;;13.07;84.67;95564.90;106635;1274;22876;-62
2023/05/22 05:22:21;;;;;;;7.10;4.30;;;;;;;13.23;84.27;95570.09;106685;1274;22508;-62
2023/05/22 05:24:50;;;;;;;8.30;4.10;;;;;;;13.36;83.51;95572.72;106734;1274;22626;-62
2023/05/22 05:27:18;;;;;;;7.20;4.50;;;;;;;13.46;82.81;95568.90;106674;1274;22647;-62
2023/05/22 05:29:47;;;;;;;15.40;6.60;;;;;;;13.46;81.55;95570.50;106736;1274;24395;-63
2023/05/22 05:32:26;;;;;;;18.50;8.40;;;;;;;13.45;80.81;95576.36;106774;1274;22676;-62
2023/05/22 05:35:10;;;;;;;7.70;5.50;;;;;;;13.42;80.80;95573.78;106718;1274;22857;-62
2023/05/22 05:38:05;;;;;;;7.80;5.50;;;;;;;13.38;81.52;95578.69;106727;1274;25300;-62
2023/05/22 05:40:33;;;;;;;11.90;5.30;;;;;;;13.30;81.87;95580.67;106814;1274;22530;-62
2023/05/22 05:43:03;;;;;;;11.90;6.60;;;;;;;13.16;82.79;95581.75;106713;1274;24374;-62
2023/05/22 05:45:31;;;;;;;9.30;6.10;;;;;;;13.12;83.00;95587.86;106770;1274;25285;-62
2023/05/22 05:47:59;;;;;;;10.90;6.80;;;;;;;13.10;82.81;95588.98;106694;1274;22524;-62
2023/05/22 05:50:28;;;;;;;8.00;5.90;;;;;;;13.13;83.93;95588.91;106735;1274;25211;-62
2023/05/22 05:52:56;;;;;;;11.60;7.10;;;;;;;13.14;84.75;95592.23;106795;1274;22781;-62
2023/05/22 05:55:24;;;;;;;9.90;6.80;;;;;;;13.15;85.19;95589.03;106665;1274;24238;-62
2023/05/22 05:57:53;;;;;;;10.10;6.10;;;;;;;13.16;84.25;95583.67;106506;1272;22986;-63
2023/05/22 06:00:29;;;;;;;9.70;6.80;;;;;;;13.15;84.29;95579.84;106611;1275;23583;-63
2023/05/22 06:02:59;;;;;;;10.60;7.90;;;;;;;13.18;85.61;95578.88;106739;1270;22511;-63
2023/05/22 06:05:47;;;;;;;10.00;6.90;;;;;;;13.25;85.73;95583.98;106714;1272;23488;-62
2023/05/22 06:08:35;;;;;;;8.40;6.60;;;;;;;13.34;86.89;95587.98;106700;1273;22906;-63
2023/05/22 06:11:05;;;;;;;6.50;5.40;;;;;;;13.38;86.61;95586.08;106571;1270;22530;-62
2023/05/22 06:13:39;;;;;;;8.00;4.60;;;;;;;13.45;86.09;95581.48;106598;1269;22560;-63
2023/05/22 06:16:07;;;;;;;6.90;5.00;;;;;;;13.55;85.68;95585.59;106594;1272;23011;-63
2023/05/22 06:18:36;;;;;;;5.60;4.70;;;;;;;13.66;85.33;95580.48;106613;1267;26044;-62
2023/05/22 06:21:06;;;;;;;7.00;5.30;;;;;;;13.81;83.99;95576.30;106544;1269;25315;-65
2023/05/22 06:23:36;;;;;;;5.80;4.40;;;;;;;13.97;83.09;95581.27;106636;1268;24389;-69
2023/05/22 06:26:06;;;;;;;8.40;5.00;;;;;;;14.10;82.23;95580.49;106710;1267;23900;-67
2023/05/22 06:28:36;;;;;;;9.90;5.40;;;;;;;14.21;81.41;95576.23;106626;1268;22536;-76
2023/05/22 06:31:08;;;;;;;6.30;5.60;;;;;;;14.29;81.33;95579.35;106607;1271;22517;-70
2023/05/22 06:33:41;;;;;;;7.90;5.50;;;;;;;14.38;81.78;95584.70;106625;1269;22522;-75
2023/05/22 06:36:10;;;;;;;9.00;6.70;;;;;;;14.48;81.93;95583.48;106657;1267;22518;-73
2023/05/22 06:38:40;;;;;;;9.60;4.50;;;;;;;14.63;81.39;95589.04;106869;1270;22532;-79
2023/05/22 06:41:20;;;;;;;6.20;4.50;;;;;;;14.71;79.58;95584.14;106987;1269;22592;-69
2023/05/22 06:43:49;;;;;;;6.10;4.70;;;;;;;14.80;79.17;95582.76;106819;1272;24011;-70
2023/05/22 06:46:22;;;;;;;;;;;;;;;14.90;79.27;95581.52;107189;1269;22501;-70
2023/05/22 06:48:57;;;;;;;7.50;5.60;;;;;;;14.97;78.69;95581.45;106931;1267;22669;-70
2023/05/22 06:51:32;;;;;;;8.10;5.60;;;;;;;15.09;78.26;95582.44;106795;1268;22540;-68
2023/05/22 06:54:05;;;;;;;10.80;6.00;;;;;;;15.17;77.03;95580.20;106603;1269;22537;-70
2023/05/22 06:56:35;;;;;;;9.70;6.60;;;;;;;15.22;76.30;95581.25;106993;1269;22723;-68
2023/05/22 06:59:07;;;;;;;9.30;6.00;;;;;;;15.23;75.99;95578.22;107074;1267;22524;-70
2023/05/22 07:01:55;;;;;;;11.70;6.30;;;;;;;15.27;75.16;95578.77;106512;1275;22529;-68
2023/05/22 07:04:33;;;;;;;8.70;6.50;;;;;;;15.42;75.84;95576.07;106787;1267;25398;-72
2023/05/22 07:07:06;;;;;;;7.70;6.30;;;;;;;15.69;76.32;95571.69;106826;1267;22589;-70
2023/05/22 07:09:34;;;;;;;14.10;10.90;;;;;;;15.98;74.68;95571.27;106811;1269;25309;-70
2023/05/22 07:12:04;;;;;;;15.30;9.00;;;;;;;16.21;75.12;95568.36;106900;1275;25469;-67
2023/05/22 07:14:33;;;;;;;11.30;5.40;;;;;;;16.49;74.73;95570.96;106921;1267;25235;-68
2023/05/22 07:17:02;;;;;;;6.40;5.10;;;;;;;16.53;72.34;95570.06;106853;1267;22526;-67
2023/05/22 07:19:35;;;;;;;8.10;5.50;;;;;;;16.56;73.22;95563.55;107169;1267;22523;-67
2023/05/22 07:22:04;;;;;;;6.10;5.50;;;;;;;16.72;73.02;95558.24;107121;1269;22547;-69
2023/05/22 07:24:34;;;;;;;6.10;5.30;;;;;;;16.85;72.78;95555.77;107188;1267;22551;-69
2023/05/22 07:27:03;;;;;;;8.00;5.50;;;;;;;16.84;71.81;95561.34;106903;1269;22520;-69
2023/05/22 07:29:32;;;;;;;15.60;12.40;;;;;;;16.68;71.39;95563.58;107042;1268;22520;-69
2023/05/22 07:32:01;;;;;;;8.70;7.90;;;;;;;16.52;71.65;95561.05;106913;1273;23149;-69
2023/05/22 07:34:33;;;;;;;12.40;8.60;;;;;;;16.37;71.81;95563.13;106930;1269;22655;-69
2023/05/22 07:37:07;;;;;;;11.20;7.40;;;;;;;16.35;72.71;95563.90;106818;1272;24211;-69
2023/05/22 07:39:36;;;;;;;12.40;7.60;;;;;;;16.66;73.46;95559.59;106725;1267;23880;-69
2023/05/22 07:42:05;;;;;;;11.40;10.20;;;;;;;17.09;73.62;95561.80;106757;1269;26740;-69
2023/05/22 07:44:37;;;;;;;47.20;36.70;;;;;;;17.29;71.66;95561.62;106858;1275;23912;-66
2023/05/22 07:47:05;;;;;;;6.60;5.70;;;;;;;17.26;67.45;95565.47;106612;1272;22531;-67
2023/05/22 07:49:34;;;;;;;9.60;6.40;;;;;;;17.43;69.24;95562.59;106704;1269;22668;-68
2023/05/22 07:52:03;;;;;;;9.00;5.10;;;;;;;17.71;68.25;95563.23;106756;1267;22521;-68
2023/05/22 07:54:31;;;;;;;10.20;5.00;;;;;;;17.78;66.66;95560.41;106580;1267;22523;-66
2023/05/22 07:57:02;;;;;;;11.30;6.10;;;;;;;17.85;67.85;95564.71;106722;1267;25644;-68
2023/05/22 07:59:34;;;;;;;8.30;5.30;;;;;;;17.83;68.39;95563.95;107152;1275;25497;-68
2023/05/22 08:02:03;;;;;;;8.10;5.40;;;;;;;17.76;68.46;95564.24;106907;1275;22525;-67
2023/05/22 08:04:31;;;;;;;9.00;5.30;;;;;;;17.67;68.35;95563.75;106631;1275;22530;-67
2023/05/22 08:07:00;;;;;;;7.40;5.30;;;;;;;17.59;68.47;95571.28;106603;1275;24247;-67
2023/05/22 08:09:28;;;;;;;27.30;18.80;;;;;;;17.53;69.20;95570.99;106539;1275;24367;-66
2023/05/22 08:11:56;;;;;;;10.30;7.20;;;;;;;17.54;69.35;95573.45;106549;1275;22526;-66
2023/05/22 08:14:24;;;;;;;10.00;6.90;;;;;;;17.53;69.11;95569.92;106489;1272;24288;-67
2023/05/22 08:16:53;;;;;;;12.10;8.00;;;;;;;17.54;68.94;95572.39;106509;1275;22541;-67
2023/05/22 08:19:21;;;;;;;9.80;7.40;;;;;;;17.53;69.24;95568.48;106499;1275;22524;-68
2023/05/22 08:21:56;;;;;;;7.40;5.70;;;;;;;17.57;69.21;95574.41;106509;1275;25607;-66
2023/05/22 08:24:29;;;;;;;9.30;5.50;;;;;;;17.62;69.18;95567.77;106778;1275;25307;-67
2023/05/22 08:26:57;;;;;;;9.80;6.60;;;;;;;17.70;69.06;95566.47;106450;1275;24300;-68
2023/05/22 08:29:25;;;;;;;8.70;5.80;;;;;;;17.97;69.98;95562.91;106502;1275;24281;-70
2023/05/22 08:31:55;;;;;;;7.80;4.60;;;;;;;18.47;67.82;95557.62;106612;1275;22527;-69
2023/05/22 08:34:25;;;;;;;8.10;5.70;;;;;;;18.88;67.19;95556.60;106635;1275;22528;-70
2023/05/22 08:36:53;;;;;;;7.50;4.60;;;;;;;19.32;66.12;95558.02;106766;1275;24100;-69
2023/05/22 08:39:21;;;;;;;7.50;4.10;;;;;;;19.58;63.11;95548.79;106583;1275;22641;-72
2023/05/22 08:41:50;;;;;;;5.20;3.80;;;;;;;19.81;62.77;95544.73;106590;1275;22781;-70
2023/05/22 08:44:19;;;;;;;10.30;4.20;;;;;;;20.08;61.00;95542.11;106737;1275;26494;-68
2023/05/22 08:46:48;;;;;;;7.50;4.80;;;;;;;20.29;60.43;95541.11;106569;1275;24144;-67
2023/05/22 08:49:20;;;;;;;6.80;5.00;;;;;;;20.41;60.22;95539.16;106599;1272;25396;-71
2023/05/22 08:51:56;;;;;;;6.70;5.70;;;;;;;20.42;61.53;95541.05;106650;1275;24241;-69
2023/05/22 08:54:25;;;;;;;7.90;5.60;;;;;;;20.47;61.44;95537.75;106684;1275;23419;-67
2023/05/22 08:56:54;;;;;;;6.60;5.50;;;;;;;20.52;61.74;95539.23;106761;1275;22520;-67
2023/05/22 08:59:24;;;;;;;6.70;4.70;;;;;;;20.49;61.36;95538.67;107188;1275;22560;-66
2023/05/22 09:01:53;;;;;;;15.20;9.50;;;;;;;20.46;61.47;95531.00;106735;1275;24226;-67
2023/05/22 09:04:23;;;;;;;5.30;4.80;;;;;;;20.43;61.80;95531.34;106969;1275;22525;-69
2023/05/22 09:06:52;;;;;;;6.80;4.80;;;;;;;20.44;61.49;95536.27;106767;1254;24237;-69
2023/05/22 09:09:20;;;;;;;8.00;5.00;;;;;;;20.42;60.42;95530.53;106775;1275;24948;-69
2023/05/22 09:11:49;;;;;;;9.10;4.90;;;;;;;20.40;60.31;95529.21;106663;1275;22536;-69
2023/05/22 09:14:17;;;;;;;5.80;4.50;;;;;;;20.26;60.05;95525.36;106691;1275;22554;-69
2023/05/22 09:16:51;;;;;;;5.00;4.30;;;;;;;20.28;60.67;95524.52;106749;1275;23880;-69
2023/05/22 09:19:20;;;;;;;6.70;5.00;;;;;;;20.60;60.37;95514.30;106682;1275;24240;-69
2023/05/22 09:21:49;;;;;;;7.70;4.60;;;;;;;20.95;61.12;95512.41;106659;1275;22511;-69
2023/05/22 09:24:17;;;;;;;11.10;6.40;;;;;;;21.18;60.67;95511.88;106720;1275;25233;-69
2023/05/22 09:26:47;;;;;;;12.50;9.10;;;;;;;21.26;56.33;95506.55;106837;1275;22539;-69
2023/05/22 09:29:15;;;;;;;7.70;5.70;;;;;;;21.50;57.60;95503.30;106873;1275;25346;-69
2023/05/22 09:31:43;;;;;;;5.20;4.70;;;;;;;21.96;56.16;95498.15;106977;1275;22646;-70
2023/05/22 09:34:16;;;;;;;4.90;4.10;;;;;;;22.23;55.16;95498.04;106952;1275;22529;-67
2023/05/22 09:36:44;;;;;;;4.90;4.30;;;;;;;22.38;53.18;95496.49;106766;1275;22536;-67
2023/05/22 09:39:13;;;;;;;5.80;4.70;;;;;;;22.63;52.98;95491.95;106719;1275;22651;-67
2023/05/22 09:41:43;;;;;;;8.30;4.90;;;;;;;22.86;52.38;95486.65;106727;1275;22711;-67
2023/05/22 09:44:15;;;;;;;4.90;4.10;;;;;;;23.07;52.50;95484.13;106749;1275;25344;-67
2023/05/22 09:46:45;;;;;;;6.10;4.40;;;;;;;23.27;52.38;95479.83;106693;1275;22516;-67
2023/05/22 09:49:15;;;;;;;12.10;5.40;;;;;;;23.57;52.51;95477.04;106725;1275;25393;-68
2023/05/22 09:51:48;;;;;;;5.80;4.20;;;;;;;23.80;50.79;95472.48;106889;1275;24246;-68
2023/05/22 09:54:20;;;;;;;7.00;5.60;;;;;;;23.72;47.51;95467.11;106878;1275;25406;-68
2023/05/22 09:56:49;;;;;;;7.40;4.70;;;;;;;23.68;48.11;95463.11;106784;1275;22579;-68
2023/05/22 09:59:22;;;;;;;5.60;4.50;;;;;;;23.83;48.04;95462.42;106700;1275;22550;-68
2023/05/22 10:01:50;;;;;;;8.10;5.80;;;;;;;23.89;46.06;95461.95;106822;1275;24198;-68
2023/05/22 10:04:21;;;;;;;5.20;3.50;;;;;;;24.06;46.11;95458.87;106946;1275;25553;-68
2023/05/22 10:06:52;;;;;;;4.90;3.60;;;;;;;24.22;45.04;95457.95;106766;1275;24248;-68
2023/05/22 10:09:24;;;;;;;6.00;3.80;;;;;;;24.33;45.11;95452.42;106613;1275;27235;-67
2023/05/22 10:11:55;;;;;;;8.00;4.30;;;;;;;24.75;45.84;95453.22;107040;1251;25478;-68
2023/05/22 10:14:24;;;;;;;14.80;9.00;;;;;;;25.04;45.99;95455.66;107013;1275;24260;-68
2023/05/22 10:16:53;;;;;;;17.00;10.80;;;;;;;25.22;46.51;95448.62;107162;1275;23013;-68
2023/05/22 10:19:25;;;;;;;11.00;5.00;;;;;;;25.11;45.87;95444.70;107034;1275;22529;-68
2023/05/22 10:21:56;;;;;;;7.80;3.90;;;;;;;25.19;43.30;95443.31;106971;1275;24216;-68
2023/05/22 10:24:24;;;;;;;7.90;4.30;;;;;;;25.28;42.56;95440.98;106785;1275;25265;-69
2023/05/22 10:26:53;;;;;;;4.70;4.00;;;;;;;25.58;42.57;95438.59;106760;1275;22513;-69
2023/05/22 10:29:28;;;;;;;8.50;4.20;;;;;;;25.67;43.28;95441.68;106746;1275;22538;-69
2023/05/22 10:32:13;;;;;;;12.80;6.00;;;;;;;25.50;42.80;95445.89;107047;1275;22597;-69
2023/05/22 10:34:58;;;;;;;6.30;4.60;;;;;;;24.92;43.36;95454.02;106664;1275;22510;-69
2023/05/22 10:37:44;;;;;;;8.70;4.70;;;;;;;24.07;44.79;95461.88;106912;1275;22520;-69
2023/05/22 10:40:29;;;;;;;9.10;5.20;;;;;;;23.34;47.55;95468.23;106750;1275;22507;-69
2023/05/22 10:43:02;;;;;;;12.40;6.30;;;;;;;22.43;51.72;95478.41;106870;1275;24441;-68
2023/05/22 10:45:31;;;;;;;14.10;5.40;;;;;;;21.55;54.33;95485.60;106785;1275;24256;-68
2023/05/22 10:48:08;;;;;;;11.20;4.40;;;;;;;20.76;58.04;95499.56;107125;1275;25389;-68
2023/05/22 10:50:37;;;;;;;10.70;5.00;;;;;;;19.91;59.05;95500.77;106692;1275;22746;-68
2023/05/22 10:53:32;;;;;;;17.30;5.70;;;;;;;19.31;61.45;95502.27;106797;1275;22538;-68
2023/05/22 10:56:12;;;;;;;10.00;4.60;;;;;;;18.61;66.69;95501.48;106768;1275;23835;-69
2023/05/22 10:59:03;;;;;;;7.20;4.20;;;;;;;18.10;68.57;95498.57;106804;1275;22516;-69
2023/05/22 11:01:36;;;;;;;11.20;4.70;;;;;;;17.63;70.04;95507.04;106798;1275;24243;-68
2023/05/22 11:04:17;;;;;;;9.50;4.30;;;;;;;17.45;70.90;95505.95;106703;1275;25311;-69
2023/05/22 11:07:05;;;;;;;10.30;6.30;;;;;;;17.30;71.43;95508.42;106673;1275;25386;-69
2023/05/22 11:09:46;;;;;;;10.20;5.00;;;;;;;17.32;72.46;95509.75;106792;1275;25258;-69
2023/05/22 11:12:25;;;;;;;7.50;4.20;;;;;;;17.38;72.90;95509.66;106801;1275;22987;-69
2023/05/22 11:14:57;;;;;;;5.40;4.00;;;;;;;17.43;74.01;95510.49;106780;1275;24232;-69
2023/05/22 11:17:27;;;;;;;9.20;4.70;;;;;;;17.43;73.58;95512.09;106786;1275;22555;-69
2023/05/22 11:20:04;;;;;;;5.70;3.90;;;;;;;17.50;72.77;95514.02;106728;1275;22522;-68
2023/05/22 11:22:35;;;;;;;8.60;4.30;;;;;;;17.54;73.53;95512.80;106782;1275;22737;-69
2023/05/22 11:25:09;;;;;;;7.80;3.50;;;;;;;17.53;73.57;95516.58;106653;1275;25319;-69
2023/05/22 11:27:39;;;;;;;7.70;4.30;;;;;;;17.46;74.10;95514.58;106753;1275;22743;-69
2023/05/22 11:30:09;;;;;;;8.40;4.50;;;;;;;17.46;75.73;95521.00;106724;1275;25456;-69
2023/05/22 11:32:39;;;;;;;6.70;4.10;;;;;;;17.44;75.41;95515.77;106884;1275;22821;-68
2023/05/22 11:35:07;;;;;;;6.00;3.90;;;;;;;17.42;75.28;95509.30;106669;1275;22499;-68
2023/05/22 11:37:39;;;;;;;4.10;3.60;;;;;;;17.35;75.61;95504.25;106661;1275;22557;-68
2023/05/22 11:40:09;;;;;;;4.20;3.60;;;;;;;17.20;77.45;95504.60;106790;1275;22517;-68
2023/05/22 11:42:38;;;;;;;5.60;3.90;;;;;;;17.00;77.77;95502.33;106631;1275;26509;-69